Tropical Cyclones
[Index]
Main Index Home Page Stock Weather Photos Extreme Storms Discussion Storm News and Storm Chasing Reports Tropical Cyclones / Hurricanes / Typhoons Weather Data and Links Wild Fires / Bushfires Weather Observation Techniques Weather Picture Catalogue Tornado Pictures and Reports Stock Video Footage and DVDs for sale
Season 2003-2004 Tropical Cyclone MONTY Track Map
Season 2003-2004 Summaries: [BoM-AU] [JTWC-AU] [JTWC-SIO] [JTWC-SPAC] [JTWC-SH]
<<- Previous TC | BoM 2003-2004 Season | Next TC ->>

click for intensity scale information  Lat/long Grid: Show Hide

 Date Labels: Show Hide

Bureau of Meteorology Tropical Cyclone Data

Name: MONTY
Number: 874 / 200304_05

25 Feb 2004 06:00 UTC to 03 Mar 2004 00:00 UTC

    date/time    lat    long    hPa   cat  kts
2004-02-25 06   17.8   124.5   1002         15          
2004-02-26 00   17.7   123.2   1003         15          
2004-02-26 06   18.0   122.6   1002         15          
2004-02-26 12   18.3   121.9   1002         15          
2004-02-26 18   18.6   121.2   1000         20          
2004-02-27 00   18.8   120.4    999         25          
2004-02-27 03   18.9   120.1    997         25          
2004-02-27 06   19.1   119.9    995    1    30          
2004-02-27 09   19.2   119.8    992    1    35          
2004-02-27 12   19.2   119.6    990    1    35          
2004-02-27 15   19.2   119.4    988    1    40          
2004-02-27 18   19.2   119.2    985    2    40          
2004-02-27 21   19.2   118.9    982    2    45          
2004-02-28 00   19.2   118.5    980    2    50          
2004-02-28 03   19.2   118.2    975    2    55          
2004-02-28 06   19.2   117.8    970    3    60          
2004-02-28 09   19.1   117.6    965    3    70          
2004-02-28 12   19.0   117.3    965    3    75          
2004-02-28 15   18.9   117.1    960    3    80          
2004-02-28 18   19.0   116.8    955    4    80          
2004-02-28 21   19.1   116.6    950    4    85          
2004-02-29 00   19.2   116.3    950    4    85          
2004-02-29 03   19.3   116.0    945    4    90          
2004-02-29 06   19.5   115.8    940    4    95          
2004-02-29 09   19.7   115.7    935    4    100          
2004-02-29 12   19.9   115.5    935    4    100          
2004-02-29 15   20.0   115.3    935    4    100          
2004-02-29 18   20.1   115.2    935    4    95          
2004-02-29 21   20.1   115.2    940    4    90          
2004-03-01 00   20.2   115.3    945    4    90          
2004-03-01 03   20.4   115.3    950    4    85          
2004-03-01 06   20.6   115.5    955    4    80          
2004-03-01 09   20.9   115.6    955    4    75          
2004-03-01 12   21.0   115.8    955    4    75          
2004-03-01 15   21.1   115.9    960    3    70          
2004-03-01 18   21.2   116.0    965    3    65          
2004-03-01 21   21.4   116.1    970    3    65          
2004-03-02 00   21.6   116.3    975    2    60          
2004-03-02 03   22.0   116.5    975    2    55          
2004-03-02 06   22.4   116.7    980    2    55          
2004-03-02 09   22.9   116.9    985    2    50          
2004-03-02 12   23.2   117.1    988    1    45          
2004-03-02 15   23.6   117.3    992    1    40          
2004-03-02 18   24.1   117.6    995    1    35          
2004-03-02 21   24.7   117.8    998         30          
2004-03-03 00   25.4   118.1   1000         25          
Winds are 10-min average.

Tropical cyclone tracks developed by Michael Bath using data from the Bureau of Meteorology and Google Maps.


[Australian Severe Weather index] [Copyright Notice] [Email Contacts] [Search This Site] [Privacy Policy]
Document: tropical_cyclone_monty.htm Updated: 29 June 2017